createdAt,value
2023-04-18T00:00:06.127Z,1008.7
2023-04-18T00:01:07.054Z,1008.6
2023-04-18T00:02:08.093Z,1008.7
2023-04-18T00:03:09.413Z,1008.7
2023-04-18T00:04:10.171Z,1008.7
2023-04-18T00:05:11.049Z,1008.7
2023-04-18T00:06:12.073Z,1008.7
2023-04-18T00:07:13.065Z,1008.7
2023-04-18T00:08:14.095Z,1008.8
2023-04-18T00:09:15.126Z,1008.7
2023-04-18T00:10:16.093Z,1008.7
2023-04-18T00:11:17.144Z,1008.7
2023-04-18T00:12:18.051Z,1008.8
2023-04-18T00:13:19.113Z,1008.7
2023-04-18T00:14:20.052Z,1008.7
2023-04-18T00:15:21.075Z,1008.7
2023-04-18T00:16:22.077Z,1008.7
2023-04-18T00:17:23.088Z,1008.7
2023-04-18T00:18:24.093Z,1008.7
2023-04-18T00:19:25.075Z,1008.7
2023-04-18T00:20:26.065Z,1008.7
2023-04-18T00:21:27.073Z,1008.7
2023-04-18T00:22:28.116Z,1008.7
2023-04-18T00:23:29.094Z,1008.6
2023-04-18T00:24:30.076Z,1008.7
2023-04-18T00:25:31.095Z,1008.7
2023-04-18T00:26:32.122Z,1008.7
2023-04-18T00:27:33.093Z,1008.8
2023-04-18T00:28:34.138Z,1008.7
2023-04-18T00:29:35.111Z,1008.7
2023-04-18T00:30:36.138Z,1008.7
2023-04-18T00:31:37.051Z,1008.7
2023-04-18T00:32:38.162Z,1008.7
2023-04-18T00:33:39.112Z,1008.7
2023-04-18T00:34:40.139Z,1008.6
2023-04-18T00:35:41.072Z,1008.6
2023-04-18T00:36:42.073Z,1008.7
2023-04-18T00:37:43.033Z,1008.7
2023-04-18T00:38:44.075Z,1008.7
2023-04-18T00:39:45.193Z,1008.6
2023-04-18T00:40:46.081Z,1008.6
2023-04-18T00:41:47.207Z,1008.5
2023-04-18T00:42:48.124Z,1008.6
2023-04-18T00:43:49.118Z,1008.6
2023-04-18T00:44:50.157Z,1008.6
2023-04-18T00:45:51.104Z,1008.6
2023-04-18T00:46:52.092Z,1008.6
2023-04-18T00:47:53.135Z,1008.6
2023-04-18T00:48:54.096Z,1008.6
2023-04-18T00:49:55.141Z,1008.6
2023-04-18T00:50:56.091Z,1008.6
2023-04-18T00:51:57.121Z,1008.7
2023-04-18T00:52:58.093Z,1008.6
2023-04-18T00:53:59.116Z,1008.6
2023-04-18T00:55:00.164Z,1008.5
2023-04-18T00:56:01.159Z,1008.6
2023-04-18T00:57:02.233Z,1008.5
2023-04-18T00:58:03.137Z,1008.5
2023-04-18T00:59:04.093Z,1008.5
2023-04-18T01:00:05.450Z,1008.6
2023-04-18T01:01:06.123Z,1008.6
2023-04-18T01:02:07.189Z,1008.6
2023-04-18T01:03:08.368Z,1008.6
2023-04-18T01:04:09.308Z,1008.5
2023-04-18T01:05:10.202Z,1008.5
2023-04-18T01:06:11.092Z,1008.5
2023-04-18T01:07:12.080Z,1008.5
2023-04-18T01:08:13.097Z,1008.6
2023-04-18T01:09:14.147Z,1008.6
2023-04-18T01:10:15.115Z,1008.6
2023-04-18T01:11:16.052Z,1008.6
2023-04-18T01:12:17.281Z,1008.6
2023-04-18T01:13:18.118Z,1008.5
2023-04-18T01:14:19.105Z,1008.5
2023-04-18T01:15:20.137Z,1008.5
2023-04-18T01:16:21.174Z,1008.5
2023-04-18T01:17:22.139Z,1008.5
2023-04-18T01:18:23.193Z,1008.6
2023-04-18T01:19:24.222Z,1008.5
2023-04-18T01:20:25.113Z,1008.5
2023-04-18T01:21:26.134Z,1008.5
2023-04-18T01:22:27.015Z,1008.5
2023-04-18T01:23:28.076Z,1008.5
2023-04-18T01:24:29.117Z,1008.5
2023-04-18T01:25:30.126Z,1008.6
2023-04-18T01:26:31.141Z,1008.5
2023-04-18T01:27:32.175Z,1008.5
2023-04-18T01:28:33.114Z,1008.5
2023-04-18T01:29:34.165Z,1008.5
2023-04-18T01:30:35.087Z,1008.6
2023-04-18T01:31:36.246Z,1008.6
2023-04-18T01:32:37.218Z,1008.2
2023-04-18T01:33:38.117Z,1008.5
2023-04-18T01:34:39.192Z,1008.5
2023-04-18T01:35:40.049Z,1008.6
2023-04-18T01:36:41.095Z,1008.6
2023-04-18T01:37:42.158Z,1008.6
2023-04-18T01:38:43.093Z,1008.5
2023-04-18T01:39:44.176Z,1008.6
2023-04-18T01:40:45.075Z,1008.5
2023-04-18T01:41:46.098Z,1008.5
2023-04-18T01:42:47.115Z,1008.5
2023-04-18T01:43:48.129Z,1008.5
2023-04-18T01:44:49.155Z,1008.6
2023-04-18T01:45:50.127Z,1008.5
2023-04-18T01:46:51.138Z,1008.6
2023-04-18T01:47:52.158Z,1008.5
2023-04-18T01:48:53.113Z,1008.5
2023-04-18T01:49:54.173Z,1008.6
2023-04-18T01:50:55.109Z,1008.5
2023-04-18T01:51:56.126Z,1008.5
2023-04-18T01:52:57.133Z,1008.5
2023-04-18T01:53:58.137Z,1008.5
2023-04-18T01:54:59.128Z,1008.5
2023-04-18T01:56:00.098Z,1008.6
2023-04-18T01:57:01.143Z,1008.5
2023-04-18T01:58:02.176Z,1008.6
2023-04-18T01:59:03.133Z,1008.5
2023-04-18T02:00:04.236Z,1008.5
2023-04-18T02:01:05.176Z,1008.5
2023-04-18T02:02:06.239Z,1008.6
2023-04-18T02:03:07.242Z,1008.6
2023-04-18T02:04:08.185Z,1008.6
2023-04-18T02:05:09.236Z,1008.5
2023-04-18T02:06:10.140Z,1008.5
2023-04-18T02:07:11.195Z,1008.5
2023-04-18T02:08:12.174Z,1008.5
2023-04-18T02:09:13.076Z,1008.5
2023-04-18T02:10:14.133Z,1008.5
2023-04-18T02:11:15.134Z,1008.5
2023-04-18T02:12:16.163Z,1008.5
2023-04-18T02:13:17.141Z,1008.5
2023-04-18T02:14:18.194Z,1008.5
2023-04-18T02:15:19.175Z,1008.5
2023-04-18T02:16:20.250Z,1008.6
2023-04-18T02:17:21.271Z,1008.5
2023-04-18T02:18:22.141Z,1008
2023-04-18T02:19:23.127Z,1008.4
2023-04-18T02:20:24.176Z,1008.5
2023-04-18T02:21:25.156Z,1008.5
2023-04-18T02:22:26.201Z,1008.5
2023-04-18T02:23:27.176Z,1008.5
2023-04-18T02:24:28.154Z,1007.9
2023-04-18T02:25:29.114Z,1008.4
2023-04-18T02:26:30.140Z,1008.4
2023-04-18T02:27:31.178Z,1008.5
2023-04-18T02:28:32.304Z,1008.6
2023-04-18T02:29:33.163Z,1008.5
2023-04-18T02:30:34.176Z,1008.5
2023-04-18T02:31:35.198Z,1008.5
2023-04-18T02:32:36.222Z,1008.5
2023-04-18T02:33:37.146Z,1008.6
2023-04-18T02:34:38.118Z,1008.6
2023-04-18T02:35:39.237Z,1008.6
2023-04-18T02:36:40.193Z,1008.4
2023-04-18T02:37:41.160Z,1008.5
2023-04-18T02:38:42.145Z,1008.5
2023-04-18T02:39:43.197Z,1008.5
2023-04-18T02:40:44.178Z,1008.5
2023-04-18T02:41:45.139Z,1008.5
2023-04-18T02:42:46.179Z,1008.5
2023-04-18T02:43:47.161Z,1008.5
2023-04-18T02:44:48.136Z,1008.6
2023-04-18T02:45:49.210Z,1008.5
2023-04-18T02:46:50.154Z,1008.5
2023-04-18T02:47:55.076Z,1008.5
2023-04-18T02:48:52.240Z,1008.5
2023-04-18T02:49:53.164Z,1008.5
2023-04-18T02:50:54.164Z,1008.5
2023-04-18T02:51:55.314Z,1008.5
2023-04-18T02:52:56.156Z,1008.5
2023-04-18T02:53:57.196Z,1008.5
2023-04-18T02:54:58.156Z,1008.5
2023-04-18T02:55:59.133Z,1008.5
2023-04-18T02:57:00.264Z,1008.6
2023-04-18T02:58:01.227Z,1008.5
2023-04-18T02:59:02.236Z,1008.5
2023-04-18T03:00:03.237Z,1008.5
2023-04-18T03:01:04.221Z,1008.5
2023-04-18T03:02:05.225Z,1008.5
2023-04-18T03:03:06.270Z,1008.5
2023-04-18T03:04:07.241Z,1008.6
2023-04-18T03:05:08.283Z,1008.5
2023-04-18T03:06:09.153Z,1008.6
2023-04-18T03:07:10.172Z,1008.5
2023-04-18T03:08:11.188Z,1008.5
2023-04-18T03:09:12.230Z,1008.6
2023-04-18T03:10:13.361Z,1008.6
2023-04-18T03:11:14.210Z,1008.6
2023-04-18T03:12:15.334Z,1008.5
2023-04-18T03:13:16.168Z,1008.6
2023-04-18T03:14:17.230Z,1008.6
2023-04-18T03:15:18.257Z,1008.6
2023-04-18T03:16:19.217Z,1008.6
2023-04-18T03:17:20.188Z,1008.6
2023-04-18T03:18:21.192Z,1008.6
2023-04-18T03:19:22.172Z,1008.6
2023-04-18T03:20:23.173Z,1008.6
2023-04-18T03:21:24.280Z,1008.6
2023-04-18T03:22:25.155Z,1008.5
2023-04-18T03:23:26.202Z,1008.5
2023-04-18T03:24:27.174Z,1008.5
2023-04-18T03:25:28.314Z,1008.6
2023-04-18T03:26:29.178Z,1008.6
2023-04-18T03:27:30.153Z,1008.6
2023-04-18T03:28:31.202Z,1008.5
2023-04-18T03:29:32.242Z,1008.6
2023-04-18T03:30:33.171Z,1008.6
2023-04-18T03:31:34.323Z,1008.6
2023-04-18T03:32:35.282Z,1008.6
2023-04-18T03:33:36.154Z,1008.6
2023-04-18T03:34:37.171Z,1008.5
2023-04-18T03:35:38.154Z,1008.5
2023-04-18T03:36:39.165Z,1008.5
2023-04-18T03:37:40.126Z,1008.5
2023-04-18T03:38:41.171Z,1008.5
2023-04-18T03:39:42.198Z,1008.5
2023-04-18T03:40:43.310Z,1008.5
2023-04-18T03:41:44.193Z,1008.2
2023-04-18T03:42:45.211Z,1008.4
2023-04-18T03:43:46.191Z,1008.5
2023-04-18T03:44:47.301Z,1008.5
2023-04-18T03:45:48.249Z,1008.5
2023-04-18T03:46:49.335Z,1008.6
2023-04-18T03:47:50.314Z,1008.6
2023-04-18T03:48:51.230Z,1008.6
2023-04-18T03:49:52.191Z,1008.5
2023-04-18T03:50:53.172Z,1008.6
2023-04-18T03:51:54.280Z,1008.5
2023-04-18T03:52:55.217Z,1008.5
2023-04-18T03:53:56.192Z,1008.5
2023-04-18T03:54:57.180Z,1008.5
2023-04-18T03:55:58.150Z,1008.5
2023-04-18T03:56:59.286Z,1008.6
2023-04-18T03:58:00.234Z,1008.6
2023-04-18T03:59:01.234Z,1008.5
2023-04-18T04:00:02.340Z,1008.6
2023-04-18T04:01:03.179Z,1007.9
2023-04-18T04:02:04.275Z,1008.4
2023-04-18T04:03:05.279Z,1008.5
2023-04-18T04:04:06.362Z,1008.6
2023-04-18T04:05:07.267Z,1008.7
2023-04-18T04:06:08.229Z,1008.6
2023-04-18T04:07:09.177Z,1008.7
2023-04-18T04:08:10.256Z,1008.6
2023-04-18T04:09:11.239Z,1008.6
2023-04-18T04:10:12.220Z,1008.6
2023-04-18T04:11:13.130Z,1008.6
2023-04-18T04:12:14.216Z,1008.7
2023-04-18T04:13:15.219Z,1008.6
2023-04-18T04:14:16.386Z,1008.7
2023-04-18T04:15:17.294Z,1008.7
2023-04-18T04:16:18.297Z,1008.6
2023-04-18T04:17:19.298Z,1008.7
2023-04-18T04:18:20.320Z,1008.7
2023-04-18T04:19:21.255Z,1008.7
2023-04-18T04:20:22.665Z,1008.7
2023-04-18T04:21:23.217Z,1008.7
2023-04-18T04:22:24.199Z,1008.7
2023-04-18T04:23:25.218Z,1008.7
2023-04-18T04:24:26.298Z,1008.7
2023-04-18T04:25:27.179Z,1008.8
2023-04-18T04:26:28.197Z,1008.8
2023-04-18T04:27:29.277Z,1008.8
2023-04-18T04:28:30.236Z,1008.7
2023-04-18T04:29:31.264Z,1008.7
2023-04-18T04:30:32.224Z,1008.7
2023-04-18T04:31:33.233Z,1008.7
2023-04-18T04:32:34.580Z,1008.8
2023-04-18T04:33:35.275Z,1008.8
2023-04-18T04:34:36.204Z,1008.8
2023-04-18T04:35:37.254Z,1008.8
2023-04-18T04:36:38.188Z,1008.8
2023-04-18T04:37:39.245Z,1008.8
2023-04-18T04:38:40.213Z,1008.8
2023-04-18T04:39:41.325Z,1008.8
2023-04-18T04:40:43.053Z,1008.8
2023-04-18T04:41:44.192Z,1008.8
2023-04-18T04:42:45.483Z,1008.8
2023-04-18T04:43:46.213Z,1008.9
2023-04-18T04:44:47.342Z,1008.8
2023-04-18T04:45:48.274Z,1008.9
2023-04-18T04:46:49.203Z,1008.9
2023-04-18T04:47:50.273Z,1008.9
2023-04-18T04:48:51.264Z,1008.9
2023-04-18T04:49:52.319Z,1008.9
2023-04-18T04:50:53.258Z,1008.9
2023-04-18T04:51:54.184Z,1008.9
2023-04-18T04:52:55.254Z,1008.9
2023-04-18T04:53:56.246Z,1008.9
2023-04-18T04:54:57.673Z,1008.9
2023-04-18T04:55:59.290Z,1008.9
2023-04-18T04:57:00.314Z,1008.9
2023-04-18T04:58:01.431Z,1008.9
2023-04-18T04:59:02.235Z,1008.9
2023-04-18T05:00:03.390Z,1008.9
2023-04-18T05:01:04.372Z,1008.9
2023-04-18T05:02:05.394Z,1008.9
2023-04-18T05:03:06.833Z,1009
2023-04-18T05:04:08.296Z,1008.9
2023-04-18T05:05:09.332Z,1008.9
2023-04-18T05:06:10.295Z,1008.9
2023-04-18T05:07:11.485Z,1009
2023-04-18T05:08:12.272Z,1008.9
2023-04-18T05:09:13.234Z,1009
2023-04-18T05:10:14.253Z,1009
2023-04-18T05:11:15.279Z,1009
2023-04-18T05:12:16.323Z,1008.9
2023-04-18T05:13:17.292Z,1009
2023-04-18T05:14:18.240Z,1008.9
2023-04-18T05:15:19.500Z,1009
2023-04-18T05:16:20.824Z,1009
2023-04-18T05:17:22.285Z,1009
2023-04-18T05:18:23.274Z,1009
2023-04-18T05:19:24.302Z,1009
2023-04-18T05:20:25.315Z,1008.9
2023-04-18T05:21:26.218Z,1008.9
2023-04-18T05:22:27.222Z,1008.7
2023-04-18T05:23:28.235Z,1008.9
2023-04-18T05:24:29.269Z,1008.9
2023-04-18T05:25:30.256Z,1009
2023-04-18T05:26:31.295Z,1009
2023-04-18T05:27:32.234Z,1009
2023-04-18T05:28:33.274Z,1009
2023-04-18T05:29:34.271Z,1009
2023-04-18T05:30:35.274Z,1009
2023-04-18T05:31:36.539Z,1009
2023-04-18T05:32:37.281Z,1009
2023-04-18T05:33:38.275Z,1009.1
2023-04-18T05:34:39.253Z,1009
2023-04-18T05:35:40.327Z,1009.1
2023-04-18T05:36:41.236Z,1009.1
2023-04-18T05:37:42.253Z,1009.1
2023-04-18T05:38:43.218Z,1009.1
2023-04-18T05:39:44.277Z,1009.1
2023-04-18T05:40:45.239Z,1009.1
2023-04-18T05:41:46.266Z,1009.2
2023-04-18T05:42:47.277Z,1009.1
2023-04-18T05:43:58.038Z,1009.1
2023-04-18T05:44:49.516Z,1009.1
2023-04-18T05:45:50.364Z,1009.1
2023-04-18T05:46:51.728Z,1009.1
2023-04-18T05:47:53.367Z,1009.1
2023-04-18T05:48:54.545Z,1009.1
2023-04-18T05:49:56.499Z,1009.1
2023-04-18T05:50:57.281Z,1009.1
2023-04-18T05:51:58.263Z,1009.1
2023-04-18T05:52:59.392Z,1009.1
2023-04-18T05:54:00.284Z,1009.1
2023-04-18T05:55:01.478Z,1009.1
2023-04-18T05:56:02.398Z,1009.1
2023-04-18T05:57:04.580Z,1009.1
2023-04-18T05:58:04.305Z,1009.1
2023-04-18T05:59:05.274Z,1009.1
2023-04-18T06:00:06.383Z,1009.1
2023-04-18T06:01:07.859Z,1009.1
2023-04-18T06:02:09.445Z,1009.1
2023-04-18T06:03:11.069Z,1009.1
2023-04-18T06:04:11.800Z,1009.1
2023-04-18T06:05:13.417Z,1009.1
2023-04-18T06:06:14.778Z,1009.1
2023-04-18T06:07:16.435Z,1009.2
2023-04-18T06:08:17.258Z,1009.1
2023-04-18T06:09:18.429Z,1009.1
2023-04-18T06:10:19.598Z,1009.1
2023-04-18T06:11:21.995Z,1009.2
2023-04-18T06:12:23.290Z,1009.1
2023-04-18T06:13:24.288Z,1009.1
2023-04-18T06:14:25.322Z,1009.1
2023-04-18T06:15:26.558Z,1009.1
2023-04-18T06:16:27.344Z,1009.1
2023-04-18T06:17:28.304Z,1009.2
2023-04-18T06:18:29.294Z,1009.2
2023-04-18T06:19:30.487Z,1009.2
2023-04-18T06:20:32.318Z,1009.2
2023-04-18T06:21:33.313Z,1009.2
2023-04-18T06:22:34.247Z,1009.2
2023-04-18T06:23:35.278Z,1009.2
2023-04-18T06:24:36.297Z,1009.3
2023-04-18T06:25:37.496Z,1009.3
2023-04-18T06:26:38.909Z,1009.2
2023-04-18T06:27:40.403Z,1009.3
2023-04-18T06:28:41.376Z,1009.3
2023-04-18T06:29:42.235Z,1009.3
2023-04-18T06:30:43.400Z,1009.3
2023-04-18T06:31:44.393Z,1009.3
2023-04-18T06:32:46.427Z,1009.3
2023-04-18T06:33:47.355Z,1009.3
2023-04-18T06:34:48.334Z,1009.4
2023-04-18T06:35:49.359Z,1009.3
2023-04-18T06:36:50.301Z,1009.3
2023-04-18T06:37:51.302Z,1009.3
2023-04-18T06:38:52.784Z,1009.3
2023-04-18T06:39:54.256Z,1009.3
2023-04-18T06:40:55.293Z,1009.4
2023-04-18T06:41:56.759Z,1009.4
2023-04-18T06:42:58.374Z,1009.4
2023-04-18T06:44:03.914Z,1009.4
2023-04-18T06:45:00.415Z,1009.4
2023-04-18T06:46:01.451Z,1009.4
2023-04-18T06:47:02.346Z,1009.4
2023-04-18T06:48:03.971Z,1009.4
2023-04-18T06:49:05.285Z,1009.4
2023-04-18T06:50:06.304Z,1009.4
2023-04-18T06:51:07.542Z,1009.4
2023-04-18T06:52:08.295Z,1009.4
2023-04-18T06:53:09.301Z,1009.4
2023-04-18T06:54:10.312Z,1009.4
2023-04-18T06:55:11.316Z,1009.4
2023-04-18T06:56:12.256Z,1009.4
2023-04-18T06:57:13.383Z,1009.4
2023-04-18T06:58:14.299Z,1009.4
2023-04-18T06:59:15.310Z,1009.5
2023-04-18T07:00:16.613Z,1009.5
2023-04-18T07:01:17.410Z,1009.5
2023-04-18T07:02:18.322Z,1009.4
2023-04-18T07:03:19.388Z,1009.5
2023-04-18T07:04:20.573Z,1009.5
2023-04-18T07:05:21.337Z,1009.5
2023-04-18T07:06:22.298Z,1009.5
2023-04-18T07:07:23.304Z,1009.5
2023-04-18T07:08:24.327Z,1009.5
2023-04-18T07:09:25.375Z,1009.5
2023-04-18T07:10:26.533Z,1009.5
2023-04-18T07:11:28.293Z,1009.5
2023-04-18T07:12:29.289Z,1009.5
2023-04-18T07:13:30.336Z,1009.5
2023-04-18T07:14:32.912Z,1009.5
2023-04-18T07:15:32.292Z,1009.5
2023-04-18T07:16:33.252Z,1009.5
2023-04-18T07:17:34.449Z,1009.6
2023-04-18T07:18:38.229Z,1009.6
2023-04-18T07:19:36.421Z,1009.6
2023-04-18T07:20:37.361Z,1009.6
2023-04-18T07:21:38.380Z,1009.6
2023-04-18T07:22:39.312Z,1009.6
2023-04-18T07:23:40.343Z,1009.6
2023-04-18T07:24:41.336Z,1009.6
2023-04-18T07:25:42.333Z,1009.6
2023-04-18T07:26:43.388Z,1009.6
2023-04-18T07:27:44.374Z,1009.6
2023-04-18T07:28:45.348Z,1009.6
2023-04-18T07:29:46.266Z,1009.7
2023-04-18T07:30:47.343Z,1009.7
2023-04-18T07:31:48.392Z,1009.6
2023-04-18T07:32:49.297Z,1009.7
2023-04-18T07:33:50.945Z,1009.4
2023-04-18T07:34:52.420Z,1009.6
2023-04-18T07:35:53.359Z,1009.7
2023-04-18T07:36:54.323Z,1009.7
2023-04-18T07:37:55.296Z,1009.7
2023-04-18T07:38:56.959Z,1009.7
2023-04-18T07:39:58.354Z,1009.7
2023-04-18T07:40:59.337Z,1009.7
2023-04-18T07:42:00.593Z,1009.7
2023-04-18T07:43:01.420Z,1009.8
2023-04-18T07:44:02.355Z,1009.8
2023-04-18T07:45:03.497Z,1009.7
2023-04-18T07:46:04.353Z,1009.7
2023-04-18T07:47:05.343Z,1009.7
2023-04-18T07:48:06.372Z,1009.7
2023-04-18T07:49:07.400Z,1009.7
2023-04-18T07:50:09.064Z,1009.8
2023-04-18T07:51:10.356Z,1009.8
2023-04-18T07:52:11.540Z,1009.8
2023-04-18T07:53:12.305Z,1009.8
2023-04-18T07:54:13.420Z,1009.8
2023-04-18T07:55:14.273Z,1009.8
2023-04-18T07:56:15.584Z,1009.8
2023-04-18T07:57:16.327Z,1009.8
2023-04-18T07:58:17.389Z,1009.8
2023-04-18T07:59:18.379Z,1009.8
2023-04-18T08:00:19.475Z,1009.9
2023-04-18T08:01:20.442Z,1009.9
2023-04-18T08:02:21.489Z,1009.9
2023-04-18T08:03:22.561Z,1009.9
2023-04-18T08:04:23.604Z,1009.9
2023-04-18T08:05:24.324Z,1009.9
2023-04-18T08:06:25.341Z,1009.3
2023-04-18T08:07:26.337Z,1009.8
2023-04-18T08:08:27.428Z,1009.9
2023-04-18T08:09:28.324Z,1009.9
2023-04-18T08:10:29.398Z,1010
2023-04-18T08:11:30.360Z,1009.9
2023-04-18T08:12:31.346Z,1009.9
2023-04-18T08:13:32.396Z,1009.9
2023-04-18T08:14:33.337Z,1009.9
2023-04-18T08:15:34.312Z,1009.9
2023-04-18T08:16:35.345Z,1009.9
2023-04-18T08:17:36.357Z,1009.9
2023-04-18T08:18:37.383Z,1009.9
2023-04-18T08:19:38.328Z,1009.9
2023-04-18T08:20:39.653Z,1009.9
2023-04-18T08:21:41.377Z,1010
2023-04-18T08:22:57.337Z,1009.9
2023-04-18T08:23:43.417Z,1009.9
2023-04-18T08:24:57.390Z,1009.9
2023-04-18T08:25:46.357Z,1009.9
2023-04-18T08:26:47.357Z,1009.9
2023-04-18T08:27:48.365Z,1009.9
2023-04-18T08:28:49.355Z,1009.9
2023-04-18T08:29:50.346Z,1009.9
2023-04-18T08:30:51.417Z,1009.9
2023-04-18T08:31:52.350Z,1010
2023-04-18T08:32:53.422Z,1010
2023-04-18T08:33:54.336Z,1010
2023-04-18T08:34:55.583Z,1010
2023-04-18T08:35:56.391Z,1010
2023-04-18T08:36:57.398Z,1009.9
2023-04-18T08:37:58.382Z,1010
2023-04-18T08:38:59.334Z,1010
2023-04-18T08:40:00.448Z,1010
2023-04-18T08:41:01.396Z,1010
2023-04-18T08:42:02.356Z,1010
2023-04-18T08:43:03.369Z,1010.1
2023-04-18T08:44:04.380Z,1010
2023-04-18T08:45:05.484Z,1010
2023-04-18T08:46:06.479Z,1010.1
2023-04-18T08:47:07.423Z,1010.1
2023-04-18T08:48:08.421Z,1010.1
2023-04-18T08:49:11.405Z,1010.1
2023-04-18T08:50:10.533Z,1010.1
2023-04-18T08:51:11.384Z,1010.1
2023-04-18T08:52:12.454Z,1010.1
2023-04-18T08:53:13.447Z,1010.1
2023-04-18T08:54:14.397Z,1010.1
2023-04-18T08:55:15.360Z,1010.1
2023-04-18T08:56:16.404Z,1010.1
2023-04-18T08:57:17.300Z,1010.1
2023-04-18T08:58:18.352Z,1010.1
2023-04-18T08:59:19.319Z,1010.1
2023-04-18T09:00:20.436Z,1010.2
2023-04-18T09:01:21.605Z,1010.2
2023-04-18T09:02:22.480Z,1010.2
2023-04-18T09:03:23.439Z,1010.1
2023-04-18T09:04:24.380Z,1010.1
2023-04-18T09:05:25.916Z,1010.1
2023-04-18T09:06:27.903Z,1010.2
2023-04-18T09:07:28.415Z,1010.2
2023-04-18T09:08:29.693Z,1010.2
2023-04-18T09:09:30.413Z,1010.1
2023-04-18T09:10:31.353Z,1010.1
2023-04-18T09:11:32.361Z,1010.2
2023-04-18T09:12:33.351Z,1010.2
2023-04-18T09:13:34.393Z,1010.2
2023-04-18T09:14:35.395Z,1010.2
2023-04-18T09:15:36.356Z,1010.1
2023-04-18T09:16:37.385Z,1010.1
2023-04-18T09:17:38.423Z,1010.1
2023-04-18T09:18:39.330Z,1010.1
2023-04-18T09:19:40.483Z,1010.1
2023-04-18T09:20:41.668Z,1010.1
2023-04-18T09:21:42.565Z,1010.1
2023-04-18T09:22:43.730Z,1010.1
2023-04-18T09:23:44.436Z,1010.1
2023-04-18T09:24:45.435Z,1010
2023-04-18T09:25:46.393Z,1010
2023-04-18T09:26:47.394Z,1010
2023-04-18T09:27:48.377Z,1010.1
2023-04-18T09:28:49.448Z,1010.1
2023-04-18T09:29:50.415Z,1010.1
2023-04-18T09:30:51.982Z,1010.1
2023-04-18T09:31:53.781Z,1010.1
2023-04-18T09:32:54.435Z,1010.1
2023-04-18T09:33:55.384Z,1010.1
2023-04-18T09:34:57.220Z,1010.1
2023-04-18T09:35:58.505Z,1010.1
2023-04-18T09:36:59.498Z,1010.1
2023-04-18T09:38:00.437Z,1010.1
2023-04-18T09:39:01.438Z,1010.1
2023-04-18T09:40:02.376Z,1010.1
2023-04-18T09:41:03.438Z,1010.1
2023-04-18T09:42:04.518Z,1010.2
2023-04-18T09:43:05.469Z,1010
2023-04-18T09:44:06.374Z,1010.1
2023-04-18T09:45:07.509Z,1010.1
2023-04-18T09:46:08.470Z,1010.1
2023-04-18T09:47:09.418Z,1010.1
2023-04-18T09:48:10.424Z,1010.1
2023-04-18T09:49:11.487Z,1009.8
2023-04-18T09:50:12.410Z,1010.1
2023-04-18T09:51:13.421Z,1010.1
2023-04-18T09:52:14.417Z,1010.1
2023-04-18T09:53:15.359Z,1010.2
2023-04-18T09:54:16.546Z,1010.1
2023-04-18T09:55:17.431Z,1010.2
2023-04-18T09:56:18.404Z,1010.1
2023-04-18T09:57:19.396Z,1010.1
2023-04-18T09:58:20.395Z,1010.1
2023-04-18T09:59:21.491Z,1010.1
2023-04-18T10:00:22.509Z,1010.1
2023-04-18T10:01:23.481Z,1010.1
2023-04-18T10:02:24.711Z,1010.1
2023-04-18T10:03:25.442Z,1010.1
2023-04-18T10:04:26.458Z,1010.1
2023-04-18T10:05:27.494Z,1010.1
2023-04-18T10:06:28.601Z,1010.1
2023-04-18T10:07:29.454Z,1010.1
2023-04-18T10:08:30.547Z,1010.1
2023-04-18T10:09:31.484Z,1010.1
2023-04-18T10:10:32.673Z,1010.1
2023-04-18T10:11:33.443Z,1010.1
2023-04-18T10:12:34.414Z,1010.1
2023-04-18T10:13:35.393Z,1010.1
2023-04-18T10:14:36.539Z,1010
2023-04-18T10:15:37.696Z,1010
2023-04-18T10:16:38.514Z,1010.1
2023-04-18T10:17:42.741Z,1010.1
2023-04-18T10:18:40.513Z,1010
2023-04-18T10:19:41.426Z,1010.1
2023-04-18T10:20:42.455Z,1010
2023-04-18T10:21:44.150Z,1010
2023-04-18T10:22:45.681Z,1010
2023-04-18T10:23:46.738Z,1010
2023-04-18T10:24:47.392Z,1010.1
2023-04-18T10:25:48.448Z,1010
2023-04-18T10:26:49.636Z,1010.1
2023-04-18T10:27:50.452Z,1010.1
2023-04-18T10:28:51.441Z,1010.1
2023-04-18T10:29:52.488Z,1010.1
2023-04-18T10:30:53.474Z,1010
2023-04-18T10:31:54.584Z,1010.1
2023-04-18T10:32:55.646Z,1010
2023-04-18T10:34:57.495Z,1010
2023-04-18T10:35:58.368Z,1010
2023-04-18T10:36:59.440Z,1010
2023-04-18T10:38:00.475Z,1010
2023-04-18T10:39:01.431Z,1010
2023-04-18T10:40:02.490Z,1010
2023-04-18T10:41:03.391Z,1010
2023-04-18T10:42:04.407Z,1010
2023-04-18T10:43:05.876Z,1010.1
2023-04-18T10:44:08.370Z,1010
2023-04-18T10:45:08.638Z,1010.1
2023-04-18T10:46:17.292Z,1010
2023-04-18T10:47:10.584Z,1010
2023-04-18T10:48:11.466Z,1010
2023-04-18T10:49:12.544Z,1010
2023-04-18T10:50:13.455Z,1010
2023-04-18T10:51:14.434Z,1010
2023-04-18T10:52:15.568Z,1010
2023-04-18T10:53:16.475Z,1010
2023-04-18T10:54:17.510Z,1010
2023-04-18T10:55:18.490Z,1010
2023-04-18T10:56:19.406Z,1010
2023-04-18T10:57:20.440Z,1009.9
2023-04-18T10:58:21.655Z,1010
2023-04-18T10:59:22.519Z,1009.9
2023-04-18T11:00:23.406Z,1010
2023-04-18T11:01:24.661Z,1010
2023-04-18T11:02:25.535Z,1009.9
2023-04-18T11:03:26.442Z,1009.9
2023-04-18T11:04:27.477Z,1009.9
2023-04-18T11:05:28.460Z,1009.9
2023-04-18T11:06:29.678Z,1009.9
2023-04-18T11:07:30.467Z,1009.9
2023-04-18T11:08:31.422Z,1009.9
2023-04-18T11:09:32.456Z,1009.9
2023-04-18T11:10:33.479Z,1009.9
2023-04-18T11:11:34.439Z,1009.9
2023-04-18T11:12:36.364Z,1009.9
2023-04-18T11:13:36.642Z,1009.9
2023-04-18T11:14:37.483Z,1009.9
2023-04-18T11:15:38.426Z,1009.9
2023-04-18T11:16:39.475Z,1009.8
2023-04-18T11:17:40.590Z,1009.9
2023-04-18T11:18:41.435Z,1009.8
2023-04-18T11:19:42.425Z,1009.9
2023-04-18T11:20:43.484Z,1009.8
2023-04-18T11:21:44.445Z,1009.8
2023-04-18T11:22:45.513Z,1009.8
2023-04-18T11:23:46.419Z,1009.8
2023-04-18T11:24:47.502Z,1009.9
2023-04-18T11:25:48.640Z,1009.9
2023-04-18T11:26:49.418Z,1009.8
2023-04-18T11:27:50.418Z,1009.9
2023-04-18T11:28:51.748Z,1009.9
2023-04-18T11:29:52.505Z,1009.8
2023-04-18T11:30:53.502Z,1009.9
2023-04-18T11:31:57.677Z,1009.9
2023-04-18T11:32:55.511Z,1009.9
2023-04-18T11:33:56.488Z,1009.9
2023-04-18T11:34:57.551Z,1009.9
2023-04-18T11:35:59.238Z,1009.9
2023-04-18T11:37:02.738Z,1009.9
2023-04-18T11:38:03.531Z,1009.8
2023-04-18T11:39:04.458Z,1009.8
2023-04-18T11:40:05.478Z,1009.9
2023-04-18T11:41:06.500Z,1009.8
2023-04-18T11:42:07.456Z,1009.8
2023-04-18T11:43:08.442Z,1009.8
2023-04-18T11:44:09.456Z,1009.8
2023-04-18T11:45:10.598Z,1009.8
2023-04-18T11:46:11.505Z,1009.8
2023-04-18T11:47:12.817Z,1009.9
2023-04-18T11:48:15.065Z,1009.9
2023-04-18T11:49:16.439Z,1009.9
2023-04-18T11:50:17.644Z,1009.9
2023-04-18T11:51:19.576Z,1009.9
2023-04-18T11:52:20.784Z,1009.9
2023-04-18T11:53:21.857Z,1009.9
2023-04-18T11:54:22.518Z,1009.9
2023-04-18T11:55:23.436Z,1009.9
2023-04-18T11:56:27.159Z,1009.9
2023-04-18T11:57:28.916Z,1009.8
2023-04-18T11:58:30.481Z,1009.8
2023-04-18T11:59:31.473Z,1009.8
2023-04-18T12:00:32.436Z,1009.8
2023-04-18T12:01:33.459Z,1010
2023-04-18T12:02:34.659Z,1009.8
2023-04-18T12:03:35.524Z,1009.9
2023-04-18T12:04:36.595Z,1009.9
2023-04-18T12:05:37.809Z,1009.8
2023-04-18T12:06:38.439Z,1009.8
2023-04-18T12:07:39.561Z,1009.9
2023-04-18T12:08:40.695Z,1009.9
2023-04-18T12:09:41.457Z,1009.8
2023-04-18T12:10:42.669Z,1009.9
2023-04-18T12:11:43.535Z,1009.8
2023-04-18T12:12:44.456Z,1009.8
2023-04-18T12:13:45.517Z,1009.8
2023-04-18T12:14:46.462Z,1009.8
2023-04-18T12:15:47.528Z,1009.9
2023-04-18T12:16:48.977Z,1009.8
2023-04-18T12:17:50.501Z,1009.8
2023-04-18T12:18:51.496Z,1009.9
2023-04-18T12:19:52.510Z,1009.9
2023-04-18T12:20:53.454Z,1009.9
2023-04-18T12:21:54.497Z,1009.8
2023-04-18T12:22:55.457Z,1009.8
2023-04-18T12:23:56.672Z,1009.9
2023-04-18T12:24:58.114Z,1009.9
2023-04-18T12:25:59.536Z,1009.2
2023-04-18T12:27:00.566Z,1009.1
2023-04-18T12:28:01.609Z,1009.6
2023-04-18T12:29:02.415Z,1009.7
2023-04-18T12:30:03.716Z,1009.8
2023-04-18T12:31:04.467Z,1009.8
2023-04-18T12:32:05.614Z,1009.8
2023-04-18T12:33:06.628Z,1009.8
2023-04-18T12:34:07.456Z,1009.8
2023-04-18T12:35:08.845Z,1009.7
2023-04-18T12:36:10.555Z,1009.5
2023-04-18T12:37:11.474Z,1009.7
2023-04-18T12:38:12.471Z,1009.8
2023-04-18T12:39:13.464Z,1009.8
2023-04-18T12:40:14.824Z,1009.9
2023-04-18T12:41:16.470Z,1009.9
2023-04-18T12:42:17.427Z,1009.8
2023-04-18T12:43:18.404Z,1009.8
2023-04-18T12:44:19.490Z,1009.8
2023-04-18T12:45:20.549Z,1009.8
2023-04-18T12:46:21.683Z,1009.8
2023-04-18T12:47:22.541Z,1009.8